Terminal Aerodrome Forecast
Issued by NWS

Home | Current Version | Previous Version | Text Only | Print | Product List | Glossary On
Versions: 1 2 3 4 5 6 7 8 9 10 11 12 13 14 15 16 17 18 19 20 21 22
833
FTUS43 KLSX 201738
TAFSUS
TAF
KSUS 201738Z 2018/2118 17007KT P6SM OVC015
     FM210000 15007KT P6SM OVC020
     FM210400 18007KT P6SM BKN090
     FM211500 20007KT P6SM FEW150 WS015/24040KT=

USA.gov is the U.S. government's official web portal to all federal, state and local government web resources and services.